Time;durP1;ratioP1;P1;durP2;ratioP2;P2;SDS_P1;SDS_P2;PMS_P1;PMS_P2;Temp;Humidity;BMP_temperature;BMP_pressure;BME280_temperature;BME280_humidity;BME280_pressure;Samples;Min_cycle;Max_cycle;Signal;HPM_P1;HPM_P2
2023/09/10 00:00:42;;;;;;;30.20;22.83;;;18.00;95.70;;;;;;5025669;28;20466;-71
2023/09/10 00:03:08;;;;;;;33.67;22.92;;;18.00;95.40;;;;;;5019778;28;20030;-70
2023/09/10 00:05:33;;;;;;;29.95;24.15;;;17.90;95.30;;;;;;5028546;28;20084;-69
2023/09/10 00:08:00;;;;;;;30.20;23.50;;;17.90;95.40;;;;;;5030397;28;20045;-70
2023/09/10 00:10:26;;;;;;;27.33;23.85;;;17.80;95.60;;;;;;5029738;28;20021;-71
2023/09/10 00:12:52;;;;;;;35.50;28.13;;;17.80;95.40;;;;;;5019776;28;20032;-70
2023/09/10 00:15:18;;;;;;;31.17;26.77;;;17.80;95.60;;;;;;5009550;28;20474;-70
2023/09/10 00:17:43;;;;;;;35.95;28.77;;;17.80;95.80;;;;;;5027451;28;20046;-69
2023/09/10 00:20:10;;;;;;;40.22;31.88;;;17.80;95.80;;;;;;5029525;28;20052;-69
2023/09/10 00:22:37;;;;;;;39.45;30.27;;;17.70;96.00;;;;;;5028028;28;20028;-70
2023/09/10 00:25:04;;;;;;;39.55;30.83;;;17.80;96.10;;;;;;5028011;28;20041;-70
2023/09/10 00:27:29;;;;;;;40.35;31.20;;;17.70;96.00;;;;;;5027235;28;20451;-69
2023/09/10 00:29:55;;;;;;;37.90;30.63;;;17.70;95.70;;;;;;5024402;28;20034;-72
2023/09/10 00:32:21;;;;;;;39.53;30.55;;;17.60;95.80;;;;;;5027257;28;20033;-69
2023/09/10 00:34:47;;;;;;;40.60;31.25;;;17.60;95.60;;;;;;5034584;28;20060;-70
2023/09/10 00:37:12;;;;;;;41.75;29.60;;;17.50;95.30;;;;;;5027902;28;20478;-69
2023/09/10 00:39:38;;;;;;;37.40;29.38;;;17.60;95.70;;;;;;5027372;28;20055;-72
2023/09/10 00:42:04;;;;;;;44.65;33.47;;;17.50;96.00;;;;;;5032442;28;20119;-70
2023/09/10 00:44:29;;;;;;;40.15;30.90;;;17.50;96.10;;;;;;5037312;28;20030;-69
2023/09/10 00:46:56;;;;;;;42.50;31.63;;;17.50;96.10;;;;;;5032243;28;20036;-69
2023/09/10 00:49:22;;;;;;;41.45;30.55;;;17.50;96.30;;;;;;5037534;28;20537;-69
2023/09/10 00:51:48;;;;;;;43.25;31.67;;;17.50;96.40;;;;;;5028679;28;20030;-69
2023/09/10 00:54:16;;;;;;;49.72;35.20;;;17.40;96.20;;;;;;5030524;28;20087;-69
2023/09/10 00:56:42;;;;;;;47.95;35.13;;;17.50;96.20;;;;;;5028204;28;20087;-70
2023/09/10 00:59:08;;;;;;;47.00;34.60;;;17.50;96.50;;;;;;5028918;28;20402;-69
2023/09/10 01:01:34;;;;;;;51.47;36.85;;;17.50;96.50;;;;;;5028328;28;20060;-69
2023/09/10 01:04:00;;;;;;;52.80;36.92;;;17.40;96.20;;;;;;5029015;28;20037;-72
2023/09/10 01:06:26;;;;;;;49.20;35.58;;;17.40;96.40;;;;;;5031954;28;20091;-70
2023/09/10 01:08:52;;;;;;;46.55;34.97;;;17.30;96.30;;;;;;5030179;28;20105;-69
2023/09/10 01:11:38;;;;;;;51.53;37.45;;;17.20;95.90;;;;;;5019008;28;20045;-71
2023/09/10 01:14:15;;;;;;;49.30;36.55;;;17.30;96.40;;;;;;5020726;28;20039;-70
2023/09/10 01:16:55;;;;;;;52.75;35.22;;;17.20;96.10;;;;;;5016199;28;20113;-69
2023/09/10 01:19:39;;;;;;;58.30;40.47;;;17.30;96.40;;;;;;5036217;28;20030;-70
2023/09/10 01:22:28;;;;;;;58.28;40.25;;;17.30;96.60;;;;;;5027008;28;20028;-69
2023/09/10 01:24:55;;;;;;;58.55;39.72;;;17.20;96.60;;;;;;5012173;28;20060;-69
2023/09/10 01:27:20;;;;;;;58.20;40.83;;;17.20;96.60;;;;;;5030735;28;20469;-69
2023/09/10 01:29:46;;;;;;;63.78;40.45;;;17.10;96.80;;;;;;5032219;28;20103;-69
2023/09/10 01:32:27;;;;;;;62.65;42.15;;;17.20;97.10;;;;;;5030299;28;20363;-69
2023/09/10 01:34:59;;;;;;;;;;;17.10;96.90;;;;;;5025712;28;20025;-70
2023/09/10 01:37:36;;;;;;;63.67;39.83;;;17.10;96.60;;;;;;5021999;28;20265;-70
2023/09/10 01:40:05;;;;;;;69.88;43.35;;;17.20;97.10;;;;;;5021747;28;20116;-71
2023/09/10 01:42:31;;;;;;;69.03;44.28;;;17.10;96.70;;;;;;5028533;28;20033;-69
2023/09/10 01:44:57;;;;;;;68.70;43.58;;;17.10;96.60;;;;;;5026426;28;20095;-70
2023/09/10 01:47:23;;;;;;;69.75;45.60;;;17.00;96.50;;;;;;5028269;28;20079;-70
2023/09/10 01:49:48;;;;;;;63.67;41.67;;;17.00;96.50;;;;;;5030282;28;20034;-69
2023/09/10 01:52:14;;;;;;;61.05;41.17;;;16.90;96.40;;;;;;5027367;28;20037;-70
2023/09/10 01:54:39;;;;;;;62.17;40.58;;;16.90;96.30;;;;;;5028904;28;20044;-70
2023/09/10 01:57:05;;;;;;;62.75;41.05;;;16.90;96.80;;;;;;5030395;28;20040;-70
2023/09/10 01:59:30;;;;;;;54.00;39.28;;;16.90;96.80;;;;;;5039498;28;20037;-69
2023/09/10 02:01:56;;;;;;;64.32;39.55;;;16.80;96.90;;;;;;5037688;28;20029;-69
2023/09/10 02:04:21;;;;;;;65.57;42.55;;;16.80;96.80;;;;;;5025523;28;20078;-70
2023/09/10 02:06:48;;;;;;;59.35;39.85;;;16.80;96.80;;;;;;5027837;28;20041;-71
2023/09/10 02:09:13;;;;;;;64.00;41.40;;;16.70;96.60;;;;;;5031682;28;20111;-69
2023/09/10 02:11:39;;;;;;;62.53;39.65;;;16.70;96.50;;;;;;5029590;28;20025;-69
2023/09/10 02:14:04;;;;;;;62.00;40.67;;;16.60;96.30;;;;;;5025535;28;20039;-69
2023/09/10 02:25:37;;;;;;;66.20;42.20;;;16.60;97.20;;;;;;5036057;23;20050;-69
2023/09/10 02:28:03;;;;;;;69.82;42.53;;;16.50;96.90;;;;;;4993891;28;20042;-71
2023/09/10 02:30:28;;;;;;;66.78;44.00;;;16.50;97.10;;;;;;4991781;28;20030;-69
2023/09/10 02:32:54;;;;;;;62.63;42.38;;;16.50;96.70;;;;;;4971553;28;20129;-69
2023/09/10 02:35:19;;;;;;;70.28;45.72;;;16.50;96.90;;;;;;4973513;28;20038;-69
2023/09/10 02:37:45;;;;;;;66.82;43.03;;;16.50;97.10;;;;;;4991048;28;20042;-69
2023/09/10 02:40:11;;;;;;;67.72;43.63;;;16.50;96.90;;;;;;4991997;28;20114;-69
2023/09/10 02:42:37;;;;;;;64.57;42.65;;;16.40;96.50;;;;;;4994230;28;20032;-70
2023/09/10 02:45:03;;;;;;;64.15;42.05;;;16.40;96.30;;;;;;4987038;28;20039;-71
2023/09/10 02:47:29;;;;;;;66.68;44.22;;;16.40;96.80;;;;;;4982834;28;20041;-70
2023/09/10 02:49:55;;;;;;;64.78;43.45;;;16.30;96.70;;;;;;4992138;28;20049;-69
2023/09/10 02:52:24;;;;;;;65.55;44.08;;;16.30;96.40;;;;;;4988746;28;20038;-70
2023/09/10 02:54:50;;;;;;;65.65;43.83;;;16.20;96.30;;;;;;4992381;28;20030;-69
2023/09/10 02:57:16;;;;;;;63.88;43.63;;;16.20;96.70;;;;;;4991771;28;20045;-70
2023/09/10 02:59:41;;;;;;;65.97;44.17;;;16.20;96.60;;;;;;4988108;28;20027;-69
2023/09/10 03:02:07;;;;;;;70.95;43.35;;;16.30;97.10;;;;;;4988593;28;20379;-69
2023/09/10 03:04:32;;;;;;;60.95;41.80;;;16.10;97.20;;;;;;4966107;28;20037;-69
2023/09/10 03:07:01;;;;;;;63.50;42.63;;;16.20;97.20;;;;;;4990488;28;20049;-72
2023/09/10 03:09:26;;;;;;;64.85;43.80;;;16.10;97.30;;;;;;4981194;28;20034;-70
2023/09/10 03:11:52;;;;;;;51.72;37.03;;;16.10;97.40;;;;;;4990306;28;20038;-69
2023/09/10 03:14:17;;;;;;;53.78;38.20;;;16.10;97.50;;;;;;4986528;28;20066;-69
2023/09/10 03:16:43;;;;;;;52.65;36.80;;;16.00;97.30;;;;;;4991524;28;20023;-70
2023/09/10 03:19:09;;;;;;;53.92;36.05;;;16.00;96.90;;;;;;4989145;28;20065;-70
2023/09/10 03:21:37;;;;;;;54.47;38.72;;;16.00;96.60;;;;;;4989856;28;20464;-69
2023/09/10 03:24:02;;;;;;;49.40;34.17;;;15.90;96.80;;;;;;4990621;28;20042;-69
2023/09/10 03:26:28;;;;;;;49.63;34.42;;;15.90;96.70;;;;;;4986432;28;20610;-70
2023/09/10 03:28:53;;;;;;;48.63;34.53;;;15.80;97.10;;;;;;4986637;28;20475;-70
2023/09/10 03:31:19;;;;;;;43.60;33.13;;;15.70;96.80;;;;;;4987827;28;20034;-71
2023/09/10 03:33:44;;;;;;;51.28;35.72;;;15.70;96.50;;;;;;4987292;28;20475;-69
2023/09/10 03:36:09;;;;;;;50.55;34.75;;;15.70;97.20;;;;;;4987385;28;20033;-69
2023/09/10 03:38:36;;;;;;;49.38;37.13;;;15.70;97.70;;;;;;4974066;28;20493;-70
2023/09/10 03:41:01;;;;;;;51.17;38.00;;;15.80;98.10;;;;;;4990780;28;20026;-69
2023/09/10 03:43:27;;;;;;;53.80;39.22;;;15.70;98.20;;;;;;4992270;28;20358;-69
2023/09/10 03:45:52;;;;;;;51.08;37.00;;;15.70;98.40;;;;;;4986943;28;20045;-71
2023/09/10 03:48:18;;;;;;;49.28;36.17;;;15.60;98.10;;;;;;4987478;28;20390;-69
2023/09/10 03:50:43;;;;;;;50.72;36.95;;;15.50;97.70;;;;;;4976502;28;20034;-70
2023/09/10 03:53:09;;;;;;;52.85;35.97;;;15.50;97.50;;;;;;4989247;28;20498;-68
2023/09/10 03:55:35;;;;;;;56.55;37.45;;;15.50;97.70;;;;;;4990938;28;20026;-70
2023/09/10 03:58:00;;;;;;;52.30;39.22;;;15.50;98.00;;;;;;4980440;28;20034;-69
2023/09/10 04:00:26;;;;;;;51.25;39.13;;;15.50;98.30;;;;;;4982424;28;20475;-69
2023/09/10 04:02:51;;;;;;;52.22;39.72;;;15.50;98.50;;;;;;4968679;28;20031;-70
2023/09/10 04:05:17;;;;;;;62.72;42.45;;;15.50;98.60;;;;;;4988025;28;20177;-69
2023/09/10 04:07:43;;;;;;;71.32;45.85;;;15.60;98.70;;;;;;4986250;28;20022;-69
2023/09/10 04:10:09;;;;;;;95.28;51.63;;;15.70;98.90;;;;;;4984802;28;20534;-69
2023/09/10 04:12:36;;;;;;;103.60;51.90;;;15.80;99.20;;;;;;4988009;28;20446;-69
2023/09/10 04:15:01;;;;;;;122.38;59.15;;;16.00;99.50;;;;;;4987793;28;20026;-69
2023/09/10 04:17:28;;;;;;;114.80;59.75;;;16.10;99.80;;;;;;4975841;28;20034;-70
2023/09/10 04:20:00;;;;;;;131.75;65.82;;;16.20;99.80;;;;;;4989949;28;20033;-73
2023/09/10 04:22:26;;;;;;;128.68;63.05;;;16.20;99.80;;;;;;4998288;28;20026;-69
2023/09/10 04:24:51;;;;;;;137.60;59.95;;;16.20;99.80;;;;;;4994315;28;20052;-70
2023/09/10 04:27:17;;;;;;;152.73;60.85;;;16.20;99.70;;;;;;4987111;28;20057;-66
2023/09/10 04:29:43;;;;;;;154.45;63.83;;;16.20;99.70;;;;;;4989849;28;20026;-67
2023/09/10 04:32:08;;;;;;;193.70;67.10;;;16.20;99.80;;;;;;4989334;28;20038;-66
2023/09/10 04:34:34;;;;;;;163.02;67.15;;;16.20;99.90;;;;;;4994561;28;20058;-66
2023/09/10 04:36:59;;;;;;;142.80;64.95;;;16.30;99.90;;;;;;4988641;28;20441;-66
2023/09/10 04:39:26;;;;;;;160.20;64.20;;;16.40;99.90;;;;;;4992997;28;20069;-67
2023/09/10 04:41:51;;;;;;;210.75;61.60;;;16.40;99.80;;;;;;4985829;28;20621;-68
2023/09/10 04:44:17;;;;;;;152.48;63.85;;;16.50;99.80;;;;;;4989240;28;20176;-66
2023/09/10 04:46:42;;;;;;;164.07;66.15;;;16.50;99.70;;;;;;4986341;28;20034;-66
2023/09/10 04:49:07;;;;;;;164.98;65.00;;;16.50;99.70;;;;;;4988463;28;20286;-66
2023/09/10 04:51:33;;;;;;;203.55;60.60;;;16.50;99.50;;;;;;4987318;28;20037;-67
2023/09/10 04:53:59;;;;;;;143.52;56.80;;;16.60;99.50;;;;;;4978855;28;20034;-65
2023/09/10 04:56:24;;;;;;;159.52;55.50;;;16.60;99.50;;;;;;4988096;28;20050;-66
2023/09/10 04:58:50;;;;;;;132.45;53.17;;;16.60;99.50;;;;;;4986181;28;20038;-68
2023/09/10 05:01:15;;;;;;;152.98;47.17;;;16.60;99.50;;;;;;4991352;28;20053;-69
2023/09/10 05:03:41;;;;;;;156.55;45.72;;;16.70;99.50;;;;;;4980845;28;20094;-66
2023/09/10 05:06:07;;;;;;;108.00;44.70;;;16.70;99.50;;;;;;4987037;28;20088;-67
2023/09/10 05:08:33;;;;;;;112.00;40.45;;;16.70;99.50;;;;;;4984046;28;20034;-66
2023/09/10 05:10:58;;;;;;;110.65;41.83;;;16.70;99.30;;;;;;4985906;28;20463;-69
2023/09/10 05:13:24;;;;;;;129.50;38.83;;;16.70;99.40;;;;;;4988506;28;20085;-66
2023/09/10 05:15:50;;;;;;;139.65;42.22;;;16.60;99.30;;;;;;4967246;28;20045;-67
2023/09/10 05:18:15;;;;;;;133.02;36.90;;;16.70;99.30;;;;;;4981959;28;20085;-68
2023/09/10 05:20:41;;;;;;;123.70;40.42;;;16.60;99.30;;;;;;4987284;28;20034;-66
2023/09/10 05:23:07;;;;;;;126.00;40.95;;;16.60;99.30;;;;;;4986538;28;20451;-69
2023/09/10 05:25:36;;;;;;;130.80;40.83;;;16.60;99.40;;;;;;4989473;28;20046;-66
2023/09/10 05:28:03;;;;;;;137.63;40.42;;;16.70;99.50;;;;;;4988416;28;20050;-69
2023/09/10 05:30:29;;;;;;;157.98;44.88;;;16.60;99.40;;;;;;4990438;28;20041;-66
2023/09/10 05:32:55;;;;;;;117.60;43.80;;;16.70;99.40;;;;;;4971849;28;20030;-67
2023/09/10 05:35:21;;;;;;;121.70;44.80;;;16.60;99.50;;;;;;4977451;28;20049;-67
2023/09/10 05:37:46;;;;;;;103.47;43.50;;;16.60;99.40;;;;;;4989266;28;20038;-67
2023/09/10 05:40:12;;;;;;;92.30;43.80;;;16.60;99.50;;;;;;4991831;28;20034;-66
2023/09/10 05:42:37;;;;;;;92.28;35.58;;;16.50;99.60;;;;;;4989747;28;20040;-67
2023/09/10 05:45:03;;;;;;;75.25;33.55;;;16.40;99.40;;;;;;4991961;28;20356;-68
2023/09/10 05:47:28;;;;;;;70.53;36.20;;;16.50;99.60;;;;;;4972371;28;20150;-66
2023/09/10 05:49:54;;;;;;;70.40;35.70;;;16.40;99.70;;;;;;4992522;28;20118;-66
2023/09/10 05:52:19;;;;;;;67.28;33.92;;;16.50;99.80;;;;;;4990925;28;20081;-66
2023/09/10 05:54:45;;;;;;;72.10;31.77;;;16.50;99.60;;;;;;4974333;28;20053;-67
2023/09/10 05:57:10;;;;;;;68.88;34.05;;;16.50;99.50;;;;;;4996656;28;20042;-66
2023/09/10 05:59:36;;;;;;;71.05;34.55;;;16.50;99.60;;;;;;4990795;28;20054;-66
2023/09/10 06:02:01;;;;;;;57.17;29.40;;;16.50;99.70;;;;;;4982106;28;20030;-67
2023/09/10 06:04:27;;;;;;;66.57;31.67;;;16.50;99.50;;;;;;4978472;28;20069;-66
2023/09/10 06:06:52;;;;;;;52.42;30.05;;;16.50;99.70;;;;;;4987998;28;20069;-66
2023/09/10 06:09:18;;;;;;;66.00;33.40;;;16.50;99.70;;;;;;4988310;28;20034;-65
2023/09/10 06:11:44;;;;;;;71.97;33.70;;;16.60;99.90;;;;;;4990237;28;20541;-67
2023/09/10 06:14:09;;;;;;;58.55;30.83;;;16.60;99.90;;;;;;5002862;28;20026;-66
2023/09/10 06:16:35;;;;;;;72.47;36.05;;;16.60;99.70;;;;;;4984483;28;20074;-66
2023/09/10 06:19:00;;;;;;;69.20;35.83;;;16.70;99.90;;;;;;4989546;28;20037;-66
2023/09/10 06:21:26;;;;;;;63.90;35.30;;;16.80;99.80;;;;;;4986900;28;20114;-66
2023/09/10 06:23:51;;;;;;;53.25;33.67;;;16.90;99.80;;;;;;4988392;28;20117;-66
2023/09/10 06:26:17;;;;;;;61.97;36.45;;;16.90;99.60;;;;;;4978274;28;20023;-66
2023/09/10 06:28:42;;;;;;;58.58;35.50;;;17.00;99.70;;;;;;4965907;28;20081;-66
2023/09/10 06:31:09;;;;;;;54.83;32.65;;;17.00;99.50;;;;;;4976937;28;20459;-66
2023/09/10 06:33:34;;;;;;;63.03;34.58;;;17.00;99.30;;;;;;4996182;28;20038;-66
2023/09/10 06:36:01;;;;;;;61.15;34.72;;;17.00;99.20;;;;;;4996520;28;20061;-66
2023/09/10 06:38:28;;;;;;;59.28;33.88;;;17.00;99.10;;;;;;4995981;28;20030;-66
2023/09/10 06:40:53;;;;;;;55.30;33.50;;;17.00;99.10;;;;;;4969970;28;20435;-66
2023/09/10 06:43:19;;;;;;;55.60;30.98;;;17.00;99.00;;;;;;4988601;28;20031;-66
2023/09/10 06:45:44;;;;;;;51.83;32.22;;;17.10;98.70;;;;;;4998184;28;20037;-67
2023/09/10 06:48:10;;;;;;;51.35;31.63;;;17.10;98.80;;;;;;4969942;28;20026;-67
2023/09/10 06:50:35;;;;;;;53.15;31.55;;;17.10;98.60;;;;;;4990661;28;20538;-69
2023/09/10 06:53:01;;;;;;;49.03;30.05;;;17.00;98.50;;;;;;4973000;28;20042;-68
2023/09/10 06:55:26;;;;;;;46.33;28.45;;;17.00;98.40;;;;;;4970913;28;20042;-67
2023/09/10 06:57:52;;;;;;;43.35;29.20;;;17.00;98.40;;;;;;4989685;28;20065;-67
2023/09/10 07:00:18;;;;;;;49.85;30.40;;;17.00;98.50;;;;;;4984365;28;22983;-67
2023/09/10 07:02:43;;;;;;;54.83;30.95;;;17.20;98.80;;;;;;4994680;28;20342;-65
2023/09/10 07:05:09;;;;;;;57.22;32.53;;;17.50;98.80;;;;;;4984113;28;20467;-67
2023/09/10 07:07:35;;;;;;;52.58;31.75;;;17.60;98.00;;;;;;4982957;28;20566;-67
2023/09/10 07:10:01;;;;;;;44.17;28.52;;;17.70;97.80;;;;;;4985274;28;20062;-66
2023/09/10 07:12:26;;;;;;;47.97;29.15;;;17.70;97.20;;;;;;4986224;28;20128;-66
2023/09/10 07:14:52;;;;;;;45.17;27.75;;;17.70;96.80;;;;;;4986398;28;20125;-66
2023/09/10 07:17:17;;;;;;;44.13;28.20;;;17.80;97.10;;;;;;4983319;28;20035;-66
2023/09/10 07:19:43;;;;;;;42.90;25.77;;;17.80;96.90;;;;;;4982091;28;20039;-65
2023/09/10 07:22:08;;;;;;;46.75;27.75;;;17.70;96.90;;;;;;4986075;28;20034;-69
2023/09/10 07:24:34;;;;;;;40.58;25.13;;;17.70;96.80;;;;;;4984723;28;20046;-66
2023/09/10 07:27:01;;;;;;;46.08;27.20;;;17.60;96.80;;;;;;4983558;28;20490;-66
2023/09/10 07:29:27;;;;;;;45.45;27.20;;;17.50;97.30;;;;;;4989437;28;20019;-66
2023/09/10 07:31:53;;;;;;;46.15;27.73;;;17.60;97.30;;;;;;4983217;28;20041;-67
2023/09/10 07:34:19;;;;;;;45.05;26.55;;;17.70;97.00;;;;;;4985237;28;20050;-66
2023/09/10 07:36:45;;;;;;;42.20;26.98;;;17.70;96.80;;;;;;4978905;28;20678;-65
2023/09/10 07:39:12;;;;;;;48.00;27.27;;;17.60;96.70;;;;;;4986031;28;20029;-66
2023/09/10 07:41:37;;;;;;;44.97;26.33;;;17.70;96.80;;;;;;4990838;28;20121;-66
2023/09/10 07:44:03;;;;;;;44.30;26.40;;;17.70;96.60;;;;;;4989636;28;20573;-67
2023/09/10 07:46:29;;;;;;;46.40;26.92;;;17.60;96.80;;;;;;4979122;28;20093;-65
2023/09/10 07:48:55;;;;;;;48.47;28.92;;;17.70;97.00;;;;;;4982808;28;20943;-65
2023/09/10 07:51:21;;;;;;;45.92;27.35;;;17.90;96.50;;;;;;4981612;28;20037;-66
2023/09/10 07:53:46;;;;;;;45.45;27.25;;;17.80;96.20;;;;;;4985912;28;20536;-66
2023/09/10 07:56:12;;;;;;;44.75;29.10;;;17.80;96.40;;;;;;4990776;28;20088;-68
2023/09/10 07:58:37;;;;;;;47.40;26.90;;;17.80;96.80;;;;;;4982472;28;20100;-65
2023/09/10 08:01:03;;;;;;;47.75;27.88;;;17.90;96.80;;;;;;4978503;28;20027;-69
2023/09/10 08:03:28;;;;;;;51.15;28.30;;;18.10;96.60;;;;;;4983673;28;20548;-67
2023/09/10 08:05:55;;;;;;;44.13;25.17;;;18.20;96.00;;;;;;4979867;28;20047;-66
2023/09/10 08:08:20;;;;;;;44.00;25.77;;;18.00;96.00;;;;;;4958565;28;20030;-66
2023/09/10 08:10:46;;;;;;;46.03;27.20;;;18.00;95.80;;;;;;4981178;28;20045;-67
2023/09/10 08:13:12;;;;;;;41.88;24.67;;;18.10;96.00;;;;;;4981522;28;20034;-67
2023/09/10 08:15:39;;;;;;;43.83;25.63;;;18.10;95.70;;;;;;4980174;28;20464;-66
2023/09/10 08:18:10;;;;;;;44.92;25.42;;;18.00;95.70;;;;;;4978910;28;20088;-67
2023/09/10 08:20:36;;;;;;;46.55;27.27;;;18.00;95.70;;;;;;4980933;28;20034;-65
2023/09/10 08:23:03;;;;;;;46.30;26.52;;;18.30;95.60;;;;;;4981800;28;20027;-64
2023/09/10 08:25:28;;;;;;;46.70;27.02;;;18.40;95.60;;;;;;4981591;28;20093;-65
2023/09/10 08:27:54;;;;;;;46.13;26.75;;;18.50;95.20;;;;;;4977210;28;20026;-65
2023/09/10 08:30:19;;;;;;;46.38;27.65;;;18.60;94.70;;;;;;4977553;28;20066;-67
2023/09/10 08:32:47;;;;;;;51.00;27.67;;;18.90;94.90;;;;;;4977295;28;20129;-67
2023/09/10 08:35:13;;;;;;;43.70;25.25;;;19.00;93.70;;;;;;4979735;28;20108;-66
2023/09/10 08:37:38;;;;;;;47.45;27.35;;;18.80;93.40;;;;;;4982655;28;20038;-65
2023/09/10 08:40:04;;;;;;;42.80;24.70;;;19.00;93.50;;;;;;4982249;28;20042;-64
2023/09/10 08:42:40;;;;;;;42.28;24.73;;;19.00;93.30;;;;;;4978870;28;20039;-67
2023/09/10 08:45:07;;;;;;;41.40;23.88;;;19.00;92.60;;;;;;4980250;28;20038;-67
2023/09/10 08:47:40;;;;;;;38.72;23.02;;;19.00;93.40;;;;;;4976153;28;20031;-65
2023/09/10 08:50:11;;;;;;;37.90;23.27;;;19.10;93.00;;;;;;4980377;28;20487;-66
2023/09/10 08:52:39;;;;;;;36.60;23.20;;;18.80;93.10;;;;;;4982740;28;20018;-65
2023/09/10 08:55:06;;;;;;;38.22;22.70;;;18.70;93.30;;;;;;4979534;28;20544;-65
2023/09/10 08:57:32;;;;;;;38.88;23.13;;;18.90;92.80;;;;;;4985644;28;20030;-64
2023/09/10 08:59:58;;;;;;;39.45;22.95;;;19.00;93.00;;;;;;4978145;28;20055;-66
2023/09/10 09:02:23;;;;;;;41.50;25.05;;;18.80;93.00;;;;;;4981023;28;20110;-65
2023/09/10 09:04:49;;;;;;;46.60;24.23;;;18.80;93.00;;;;;;4979046;28;20593;-66
2023/09/10 09:07:17;;;;;;;42.42;24.33;;;18.80;93.60;;;;;;4987903;28;20027;-66
2023/09/10 09:09:49;;;;;;;43.65;23.52;;;18.70;93.80;;;;;;4987450;28;20124;-66
2023/09/10 09:12:16;;;;;;;42.92;23.55;;;18.60;93.60;;;;;;4987768;28;20030;-66
2023/09/10 09:14:43;;;;;;;44.17;23.13;;;18.60;94.10;;;;;;4984633;28;20030;-66
2023/09/10 09:17:14;;;;;;;41.47;22.42;;;18.60;93.80;;;;;;4983497;28;20030;-66
2023/09/10 09:19:42;;;;;;;;;;;18.60;94.10;;;;;;4992540;28;20041;-66
2023/09/10 09:22:08;;;;;;;37.08;20.60;;;18.50;94.20;;;;;;4986548;28;19917;-66
2023/09/10 09:24:34;;;;;;;40.75;22.73;;;18.40;94.60;;;;;;4989959;28;20058;-65
2023/09/10 09:27:00;;;;;;;44.22;24.05;;;18.50;94.50;;;;;;4985729;28;20101;-66
2023/09/10 09:29:28;;;;;;;47.50;24.52;;;18.60;94.80;;;;;;4986797;28;20077;-66
2023/09/10 09:31:54;;;;;;;43.08;22.98;;;18.50;94.00;;;;;;4977752;28;20033;-68
2023/09/10 09:34:19;;;;;;;39.05;22.95;;;18.50;95.00;;;;;;4984248;28;20707;-66
2023/09/10 09:36:50;;;;;;;43.15;23.88;;;18.50;94.30;;;;;;4981926;28;20063;-67
2023/09/10 09:39:17;;;;;;;42.15;23.95;;;18.50;94.50;;;;;;4985083;28;20041;-68
2023/09/10 09:41:52;;;;;;;45.15;24.40;;;18.70;94.70;;;;;;4986432;28;20360;-67
2023/09/10 09:44:19;;;;;;;44.30;23.08;;;18.80;93.70;;;;;;4985279;28;20117;-65
2023/09/10 09:46:45;;;;;;;43.90;23.33;;;19.00;93.30;;;;;;4985596;28;20030;-67
2023/09/10 09:49:11;;;;;;;38.40;22.92;;;19.10;92.20;;;;;;4985091;28;20030;-68
2023/09/10 09:51:40;;;;;;;38.50;23.52;;;19.20;92.50;;;;;;4985629;28;20398;-67
2023/09/10 09:54:07;;;;;;;39.47;20.60;;;19.20;92.50;;;;;;4970210;28;20068;-67
2023/09/10 09:56:33;;;;;;;36.72;21.67;;;19.20;92.00;;;;;;4986992;28;20034;-70
2023/09/10 09:58:59;;;;;;;38.25;21.30;;;19.20;92.20;;;;;;4986621;28;20085;-67
2023/09/10 10:01:25;;;;;;;40.03;21.67;;;19.10;92.00;;;;;;4983762;28;20447;-67
2023/09/10 10:03:52;;;;;;;36.78;22.58;;;19.40;92.00;;;;;;4987792;28;20130;-68
2023/09/10 10:06:18;;;;;;;35.17;21.27;;;19.30;91.50;;;;;;4983822;28;20035;-67
2023/09/10 10:08:48;;;;;;;32.63;19.98;;;19.40;91.50;;;;;;4966134;28;20034;-67
2023/09/10 10:11:29;;;;;;;34.25;20.02;;;19.30;91.40;;;;;;4981666;28;20122;-71
2023/09/10 10:13:59;;;;;;;32.33;19.83;;;19.30;91.90;;;;;;4983933;28;20034;-69
2023/09/10 10:16:29;;;;;;;34.20;20.50;;;19.30;91.10;;;;;;4988670;28;20521;-68
2023/09/10 10:18:55;;;;;;;31.90;19.80;;;19.40;91.20;;;;;;4991509;28;20992;-67
2023/09/10 10:21:22;;;;;;;34.53;19.90;;;19.70;90.60;;;;;;4991538;28;20373;-67
2023/09/10 10:23:48;;;;;;;36.38;20.20;;;19.50;90.20;;;;;;4984714;28;20062;-68
2023/09/10 10:26:16;;;;;;;34.55;19.67;;;19.60;90.50;;;;;;4984947;28;21747;-70
2023/09/10 10:28:44;;;;;;;31.17;19.05;;;19.70;90.00;;;;;;4989204;28;20112;-68
2023/09/10 10:31:16;;;;;;;30.95;19.27;;;19.60;90.50;;;;;;4989087;28;20030;-69
2023/09/10 10:33:55;;;;;;;35.08;19.85;;;19.70;89.60;;;;;;4988431;28;20035;-66
2023/09/10 10:36:36;;;;;;;36.40;19.95;;;19.60;89.70;;;;;;4992460;28;20061;-67
2023/09/10 10:39:08;;;;;;;33.53;18.75;;;20.00;89.60;;;;;;4993183;28;20502;-65
2023/09/10 10:41:37;;;;;;;33.88;18.80;;;20.10;88.80;;;;;;4995878;28;20443;-66
2023/09/10 10:44:17;;;;;;;31.40;18.42;;;20.30;88.50;;;;;;4995636;28;20487;-66
2023/09/10 10:46:43;;;;;;;31.00;19.02;;;20.70;88.40;;;;;;4985582;28;20368;-66
2023/09/10 10:49:10;;;;;;;33.05;19.55;;;20.40;87.40;;;;;;4987561;28;20442;-67
2023/09/10 10:51:42;;;;;;;33.55;18.40;;;20.70;87.80;;;;;;4993868;28;20030;-70
2023/09/10 10:54:07;;;;;;;32.25;19.45;;;20.70;86.40;;;;;;4995875;28;20100;-68
2023/09/10 10:56:34;;;;;;;30.50;18.13;;;20.60;87.30;;;;;;4979382;28;20030;-66
2023/09/10 10:59:00;;;;;;;31.15;17.55;;;21.10;87.10;;;;;;4988647;28;20394;-68
2023/09/10 11:01:27;;;;;;;28.20;17.55;;;21.30;86.00;;;;;;4983556;28;20463;-68
2023/09/10 11:03:53;;;;;;;30.38;18.13;;;21.00;85.60;;;;;;4981202;28;20034;-66
2023/09/10 11:06:18;;;;;;;29.65;17.42;;;21.70;83.70;;;;;;4983256;28;20042;-66
2023/09/10 11:08:46;;;;;;;25.30;16.25;;;22.00;83.50;;;;;;4988597;28;20030;-66
2023/09/10 11:11:33;;;;;;;26.88;16.33;;;21.80;83.10;;;;;;4989235;28;20042;-67
2023/09/10 11:14:06;;;;;;;25.98;15.80;;;22.10;82.70;;;;;;4978444;28;20134;-67
2023/09/10 11:16:36;;;;;;;26.20;16.02;;;22.50;82.10;;;;;;4987365;28;20360;-66
2023/09/10 11:19:05;;;;;;;26.17;16.33;;;22.60;80.10;;;;;;4984307;28;20038;-67
2023/09/10 11:21:56;;;;;;;24.83;16.20;;;22.90;81.30;;;;;;4987540;28;20506;-66
2023/09/10 11:24:21;;;;;;;23.52;15.40;;;23.20;79.80;;;;;;4985353;28;20052;-69
2023/09/10 11:26:47;;;;;;;22.27;14.32;;;23.50;79.80;;;;;;4980084;28;20034;-67
2023/09/10 11:29:17;;;;;;;21.23;15.02;;;23.30;78.70;;;;;;4987064;28;20109;-67
2023/09/10 11:31:45;;;;;;;18.83;13.45;;;23.50;77.30;;;;;;4981014;28;20330;-68
2023/09/10 11:34:23;;;;;;;21.33;14.25;;;23.90;76.40;;;;;;4978825;28;20377;-66
2023/09/10 11:37:02;;;;;;;19.60;13.60;;;24.00;76.00;;;;;;4981101;28;20042;-67
2023/09/10 11:39:29;;;;;;;18.77;13.15;;;23.90;75.20;;;;;;4977921;28;20067;-67
2023/09/10 11:41:56;;;;;;;20.85;14.48;;;23.90;75.90;;;;;;4978788;28;20555;-68
2023/09/10 11:44:22;;;;;;;17.85;13.35;;;23.60;76.80;;;;;;4978577;28;20034;-66
2023/09/10 11:46:48;;;;;;;19.77;13.15;;;24.20;75.30;;;;;;4980581;28;20046;-66
2023/09/10 11:49:15;;;;;;;20.40;13.93;;;24.40;74.00;;;;;;4980463;28;20026;-67
2023/09/10 11:51:45;;;;;;;19.17;13.25;;;24.50;73.50;;;;;;4986431;28;20026;-66
2023/09/10 11:54:18;;;;;;;18.42;13.23;;;24.30;74.00;;;;;;4970816;28;20855;-67
2023/09/10 11:56:51;;;;;;;17.52;11.73;;;24.10;74.60;;;;;;4990699;28;20456;-66
2023/09/10 11:59:18;;;;;;;19.70;13.50;;;24.90;74.00;;;;;;4983445;28;20126;-67
2023/09/10 12:01:44;;;;;;;17.95;12.25;;;25.00;71.20;;;;;;4995884;28;20109;-66
2023/09/10 12:04:10;;;;;;;16.75;12.40;;;25.60;70.50;;;;;;4981640;28;20523;-67
2023/09/10 12:06:36;;;;;;;18.08;11.45;;;25.60;70.30;;;;;;4979494;28;20035;-66
2023/09/10 12:09:01;;;;;;;14.20;11.18;;;26.00;68.20;;;;;;4982175;28;20126;-68
2023/09/10 12:11:28;;;;;;;14.82;11.48;;;25.70;70.10;;;;;;4982850;28;20374;-67
2023/09/10 12:13:54;;;;;;;15.55;11.23;;;26.00;68.80;;;;;;4980132;28;20038;-67
2023/09/10 12:16:20;;;;;;;15.63;11.13;;;26.10;70.10;;;;;;4975682;28;20044;-69
2023/09/10 12:18:47;;;;;;;14.23;11.13;;;26.10;67.60;;;;;;4980492;28;20124;-67
2023/09/10 12:21:15;;;;;;;13.75;10.23;;;25.90;68.60;;;;;;4983953;28;20034;-69
2023/09/10 12:23:41;;;;;;;11.13;9.05;;;26.40;66.90;;;;;;4984782;28;20041;-68
2023/09/10 12:26:09;;;;;;;12.60;9.75;;;26.60;68.30;;;;;;4982875;28;20064;-69
2023/09/10 12:28:35;;;;;;;12.63;9.70;;;26.80;65.00;;;;;;4980094;28;20065;-67
2023/09/10 12:31:02;;;;;;;11.85;9.50;;;26.90;64.60;;;;;;4979614;28;20352;-66
2023/09/10 12:33:28;;;;;;;10.10;8.80;;;27.00;64.10;;;;;;4976729;28;20031;-67